createdAt,value
2022-12-03T00:00:21.259Z,1.40
2022-12-03T00:02:50.128Z,1.40
2022-12-03T00:05:19.168Z,1.30
2022-12-03T00:07:49.314Z,1.30
2022-12-03T00:10:18.122Z,1.20
2022-12-03T00:12:46.947Z,1.10
2022-12-03T00:15:15.878Z,1.10
2022-12-03T00:17:44.621Z,1.20
2022-12-03T00:20:21.180Z,1.20
2022-12-03T00:22:51.916Z,1.20
2022-12-03T00:25:20.868Z,1.10
2022-12-03T00:27:49.641Z,1.30
2022-12-03T00:30:18.645Z,1.30
2022-12-03T00:32:47.468Z,1.40
2022-12-03T00:35:16.479Z,1.30
2022-12-03T00:37:45.185Z,1.40
2022-12-03T00:40:15.817Z,1.30
2022-12-03T00:42:44.592Z,1.30
2022-12-03T00:45:13.627Z,1.20
2022-12-03T00:47:42.304Z,1.20
2022-12-03T00:50:13.090Z,1.30
2022-12-03T00:52:41.875Z,1.20
2022-12-03T00:55:11.221Z,1.20
2022-12-03T00:57:41.296Z,1.20
2022-12-03T01:00:12.181Z,1.30
2022-12-03T01:02:41.053Z,1.10
2022-12-03T01:05:10.868Z,1.10
2022-12-03T01:07:39.625Z,1.10
2022-12-03T01:10:09.739Z,1.20
2022-12-03T01:12:38.557Z,1.20
2022-12-03T01:15:10.536Z,1.10
2022-12-03T01:17:39.676Z,1.20
2022-12-03T01:20:10.956Z,1.10
2022-12-03T01:22:39.936Z,1.10
2022-12-03T01:25:09.612Z,1.20
2022-12-03T01:27:38.377Z,1.10
2022-12-03T01:30:11.828Z,1.10
2022-12-03T01:32:39.492Z,1.10
2022-12-03T01:35:09.040Z,1.20
2022-12-03T01:37:37.875Z,1.20
2022-12-03T01:40:10.064Z,1.20
2022-12-03T01:42:42.748Z,1.20
2022-12-03T01:45:25.359Z,1.30
2022-12-03T01:47:54.243Z,1.30
2022-12-03T01:50:31.498Z,1.40
2022-12-03T01:53:05.083Z,1.30
2022-12-03T01:55:34.101Z,1.30
2022-12-03T01:58:04.375Z,1.30
2022-12-03T02:00:34.625Z,1.30
2022-12-03T02:03:13.102Z,1.30
2022-12-03T02:05:42.879Z,1.20
2022-12-03T02:08:31.501Z,1.20
2022-12-03T02:11:04.505Z,1.30
2022-12-03T02:13:33.675Z,1.30
2022-12-03T02:16:04.977Z,1.30
2022-12-03T02:18:33.858Z,1.40
2022-12-03T02:21:18.166Z,1.40
2022-12-03T02:24:03.733Z,1.40
2022-12-03T02:26:34.059Z,1.40
2022-12-03T02:29:03.601Z,1.40
2022-12-03T02:31:33.373Z,1.30
2022-12-03T02:34:07.477Z,1.40
2022-12-03T02:36:38.749Z,1.20
2022-12-03T02:39:08.205Z,1.40
2022-12-03T02:41:55.779Z,1.40
2022-12-03T02:44:24.587Z,1.40
2022-12-03T02:46:53.347Z,1.50
2022-12-03T02:49:22.216Z,1.50
2022-12-03T02:51:51.033Z,1.50
2022-12-03T02:54:20.101Z,1.40
2022-12-03T02:56:51.163Z,1.40
2022-12-03T02:59:20.010Z,1.20
2022-12-03T03:01:49.460Z,1.20
2022-12-03T03:04:18.404Z,1.20
2022-12-03T03:06:47.416Z,1.20
2022-12-03T03:09:16.171Z,1.30
2022-12-03T03:11:44.984Z,1.30
2022-12-03T03:14:15.261Z,1.30
2022-12-03T03:16:44.055Z,1.30
2022-12-03T03:19:13.250Z,1.30
2022-12-03T03:21:42.012Z,1.30
2022-12-03T03:24:11.170Z,1.30
2022-12-03T03:26:39.961Z,1.30
2022-12-03T03:29:08.938Z,1.30
2022-12-03T03:31:40.270Z,1.30
2022-12-03T03:34:09.808Z,1.20
2022-12-03T03:36:39.168Z,1.20
2022-12-03T03:39:08.782Z,1.20
2022-12-03T03:41:38.967Z,1.20
2022-12-03T03:44:09.633Z,1.20
2022-12-03T03:46:43.909Z,1.30
2022-12-03T03:49:14.731Z,1.20
2022-12-03T03:51:43.607Z,1.20
2022-12-03T03:54:12.583Z,1.20
2022-12-03T03:56:54.796Z,1.00
2022-12-03T03:59:23.525Z,1.10
2022-12-03T04:01:54.009Z,1.10
2022-12-03T04:04:26.790Z,0.90
2022-12-03T04:06:55.655Z,0.90
2022-12-03T04:09:24.398Z,1.10
2022-12-03T04:12:10.027Z,1.10
2022-12-03T04:14:38.704Z,1.20
2022-12-03T04:17:33.772Z,1.10
2022-12-03T04:20:02.513Z,1.20
2022-12-03T04:22:41.959Z,1.10
2022-12-03T04:25:25.850Z,1.20
2022-12-03T04:28:12.833Z,1.20
2022-12-03T04:30:41.609Z,1.30
2022-12-03T04:33:29.103Z,1.30
2022-12-03T04:35:57.903Z,1.20
2022-12-03T04:38:26.624Z,1.20
2022-12-03T04:41:05.166Z,1.20
2022-12-03T04:43:56.126Z,1.30
2022-12-03T04:46:24.913Z,1.40
2022-12-03T04:48:55.054Z,1.30
2022-12-03T04:51:23.723Z,1.30
2022-12-03T04:53:52.494Z,1.30
2022-12-03T04:56:21.312Z,1.20
2022-12-03T04:58:50.194Z,1.20
2022-12-03T05:01:18.975Z,1.30
2022-12-03T05:03:47.904Z,1.30
2022-12-03T05:06:18.151Z,1.20
2022-12-03T05:08:46.952Z,1.20
2022-12-03T05:11:15.760Z,1.20
2022-12-03T05:13:44.482Z,1.20
2022-12-03T05:16:13.355Z,1.20
2022-12-03T05:18:42.136Z,1.20
2022-12-03T05:21:10.912Z,1.30
2022-12-03T05:23:41.608Z,1.20
2022-12-03T05:26:10.402Z,1.30
2022-12-03T05:28:39.156Z,1.20
2022-12-03T05:31:08.400Z,1.30
2022-12-03T05:33:43.741Z,1.30
2022-12-03T05:36:13.331Z,1.30
2022-12-03T05:38:43.896Z,1.20
2022-12-03T05:41:32.310Z,1.10
2022-12-03T05:44:01.199Z,1.20
2022-12-03T05:46:29.958Z,1.30
2022-12-03T05:48:59.702Z,1.30
2022-12-03T05:51:28.862Z,1.30
2022-12-03T05:54:00.469Z,1.30
2022-12-03T05:56:32.100Z,1.40
2022-12-03T05:59:01.218Z,1.50
2022-12-03T06:01:29.900Z,1.40
2022-12-03T06:03:58.842Z,1.40
2022-12-03T06:06:28.015Z,1.50
2022-12-03T06:08:56.688Z,1.40
2022-12-03T06:11:26.943Z,1.30
2022-12-03T06:13:56.031Z,1.40
2022-12-03T06:16:26.254Z,1.40
2022-12-03T06:18:55.264Z,1.40
2022-12-03T06:21:24.250Z,1.50
2022-12-03T06:23:55.242Z,1.50
2022-12-03T06:26:25.617Z,1.50
2022-12-03T06:28:54.327Z,1.50
2022-12-03T06:31:24.482Z,1.50
2022-12-03T06:33:54.280Z,1.50
2022-12-03T06:36:23.632Z,1.50
2022-12-03T06:38:52.840Z,1.50
2022-12-03T06:41:21.877Z,1.40
2022-12-03T06:43:52.029Z,1.40
2022-12-03T06:46:20.826Z,1.40
2022-12-03T06:48:49.625Z,1.50
2022-12-03T06:51:18.592Z,1.50
2022-12-03T06:53:47.391Z,1.40
2022-12-03T06:56:20.052Z,1.40
2022-12-03T06:58:52.139Z,1.50
2022-12-03T07:01:20.968Z,1.50
2022-12-03T07:03:50.170Z,1.60
2022-12-03T07:06:19.159Z,1.50
2022-12-03T07:08:47.820Z,1.50
2022-12-03T07:11:30.397Z,1.50
2022-12-03T07:14:05.621Z,1.60
2022-12-03T07:16:35.922Z,1.50
2022-12-03T07:19:05.393Z,1.50
2022-12-03T07:21:34.243Z,1.50
2022-12-03T07:24:03.141Z,1.50
2022-12-03T07:26:31.866Z,1.50
2022-12-03T07:29:02.021Z,1.40
2022-12-03T07:31:30.801Z,1.50
2022-12-03T07:33:59.647Z,1.50
2022-12-03T07:36:28.324Z,1.60
2022-12-03T07:38:57.083Z,1.60
2022-12-03T07:41:25.940Z,1.60
2022-12-03T07:43:54.602Z,1.60
2022-12-03T07:46:25.035Z,1.40
2022-12-03T07:48:53.756Z,1.50
2022-12-03T07:51:25.048Z,1.60
2022-12-03T07:53:56.076Z,1.60
2022-12-03T07:56:24.867Z,1.70
2022-12-03T07:58:53.558Z,1.50
2022-12-03T08:01:23.945Z,1.60
2022-12-03T08:03:52.871Z,1.70
2022-12-03T08:06:21.679Z,1.70
2022-12-03T08:08:50.457Z,1.70
2022-12-03T08:11:20.218Z,1.70
2022-12-03T08:13:49.721Z,1.80
2022-12-03T08:16:21.645Z,1.70
2022-12-03T08:18:57.809Z,1.60
2022-12-03T08:22:05.606Z,1.70
2022-12-03T08:24:36.079Z,1.70
2022-12-03T08:27:18.336Z,1.70
2022-12-03T08:29:47.818Z,1.70
2022-12-03T08:32:16.735Z,1.60
2022-12-03T08:34:47.001Z,1.70
2022-12-03T08:37:19.814Z,1.70
2022-12-03T08:39:49.808Z,1.70
2022-12-03T08:42:41.364Z,1.70
2022-12-03T08:45:39.923Z,1.80
2022-12-03T08:48:30.588Z,1.80
2022-12-03T08:51:06.470Z,1.80
2022-12-03T08:53:38.761Z,1.80
2022-12-03T08:56:22.514Z,1.80
2022-12-03T08:58:56.688Z,1.80
2022-12-03T09:01:34.649Z,1.80
2022-12-03T09:04:37.224Z,1.80
2022-12-03T09:07:07.338Z,1.80
2022-12-03T09:09:36.428Z,1.80
2022-12-03T09:12:05.886Z,1.70
2022-12-03T09:14:34.631Z,1.60
2022-12-03T09:17:03.440Z,1.70
2022-12-03T09:19:32.242Z,1.70
2022-12-03T09:22:00.994Z,1.80
2022-12-03T09:24:31.163Z,1.80
2022-12-03T09:27:00.261Z,1.80
2022-12-03T09:29:28.921Z,1.80
2022-12-03T09:31:57.751Z,1.80
2022-12-03T09:34:26.800Z,1.80
2022-12-03T09:36:55.585Z,1.80
2022-12-03T09:39:24.520Z,1.70
2022-12-03T09:41:56.524Z,1.80
2022-12-03T09:44:25.443Z,1.80
2022-12-03T09:46:54.179Z,1.90
2022-12-03T09:49:23.120Z,1.90
2022-12-03T09:51:51.914Z,1.90
2022-12-03T09:54:25.742Z,2.00
2022-12-03T09:56:58.493Z,1.90
2022-12-03T09:59:33.397Z,1.90
2022-12-03T10:02:02.975Z,1.90
2022-12-03T10:04:31.933Z,1.90
2022-12-03T10:07:00.866Z,2.00
2022-12-03T10:09:32.494Z,2.00
2022-12-03T10:12:04.055Z,2.10
2022-12-03T10:14:33.204Z,2.00
2022-12-03T10:17:02.048Z,2.00
2022-12-03T10:19:35.540Z,2.00
2022-12-03T10:22:04.410Z,2.10
2022-12-03T10:24:35.581Z,2.10
2022-12-03T10:27:22.293Z,2.10
2022-12-03T10:29:59.448Z,2.00
2022-12-03T10:32:41.178Z,2.10
2022-12-03T10:35:14.162Z,2.00
2022-12-03T10:38:01.689Z,2.10
2022-12-03T10:40:33.169Z,2.10
2022-12-03T10:43:23.422Z,2.20
2022-12-03T10:46:10.877Z,2.30
2022-12-03T10:48:40.271Z,2.30
2022-12-03T10:51:20.827Z,2.20
2022-12-03T10:53:51.841Z,2.20
2022-12-03T10:56:27.468Z,2.30
2022-12-03T10:58:57.871Z,2.20
2022-12-03T11:01:28.214Z,2.20
2022-12-03T11:04:05.556Z,2.20
2022-12-03T11:06:34.441Z,2.10
2022-12-03T11:09:08.754Z,2.10
2022-12-03T11:11:38.151Z,2.20
2022-12-03T11:14:11.175Z,2.30
2022-12-03T11:17:13.011Z,2.20
2022-12-03T11:19:50.908Z,2.30
2022-12-03T11:22:41.684Z,2.30
2022-12-03T11:25:57.478Z,2.40
2022-12-03T11:28:53.529Z,2.30
2022-12-03T11:31:45.198Z,2.40
2022-12-03T11:34:42.689Z,2.50
2022-12-03T11:37:26.190Z,2.50
2022-12-03T11:40:39.567Z,2.40
2022-12-03T11:43:12.206Z,2.40
2022-12-03T11:45:42.630Z,2.30
2022-12-03T11:48:19.791Z,2.40
2022-12-03T11:50:54.636Z,2.30
2022-12-03T11:53:26.222Z,2.40
2022-12-03T11:56:09.103Z,2.40
2022-12-03T11:58:40.763Z,2.40
2022-12-03T12:01:11.034Z,2.30
2022-12-03T12:03:48.322Z,2.30
2022-12-03T12:06:20.565Z,2.30
2022-12-03T12:09:01.120Z,2.20
2022-12-03T12:11:32.399Z,2.20
2022-12-03T12:14:04.339Z,2.30
2022-12-03T12:16:55.286Z,2.30
2022-12-03T12:19:49.751Z,2.20
2022-12-03T12:22:32.432Z,2.30
2022-12-03T12:25:03.100Z,2.30
2022-12-03T12:27:37.512Z,2.30
2022-12-03T12:30:11.092Z,2.30
2022-12-03T12:32:47.395Z,2.30
2022-12-03T12:35:22.412Z,2.30
2022-12-03T12:37:59.572Z,2.30
2022-12-03T12:40:31.971Z,2.30
2022-12-03T12:43:11.893Z,2.30
2022-12-03T12:45:44.466Z,2.10
2022-12-03T12:48:23.475Z,2.20
2022-12-03T12:51:01.448Z,2.20
2022-12-03T12:53:34.156Z,2.10
2022-12-03T12:56:08.880Z,2.20
2022-12-03T12:58:38.276Z,2.20
2022-12-03T13:01:16.999Z,2.30
2022-12-03T13:03:45.819Z,2.30
2022-12-03T13:06:18.339Z,2.30
2022-12-03T13:08:50.606Z,2.40
2022-12-03T13:11:37.140Z,2.40
2022-12-03T13:14:17.015Z,2.40
2022-12-03T13:16:47.271Z,2.40
2022-12-03T13:19:25.028Z,2.40
2022-12-03T13:21:57.542Z,2.40
2022-12-03T13:24:37.024Z,2.40
2022-12-03T13:27:25.804Z,2.50
2022-12-03T13:30:00.414Z,2.50
2022-12-03T13:32:33.494Z,2.50
2022-12-03T13:35:08.159Z,2.50
2022-12-03T13:37:39.751Z,2.50
2022-12-03T13:40:25.020Z,2.50
2022-12-03T13:42:55.049Z,2.40
2022-12-03T13:45:36.638Z,2.30
2022-12-03T13:48:20.329Z,2.40
2022-12-03T13:50:49.570Z,2.40
2022-12-03T13:53:24.401Z,2.40
2022-12-03T13:55:58.041Z,2.30
2022-12-03T13:58:26.730Z,2.40
2022-12-03T14:00:55.493Z,2.40
2022-12-03T14:03:24.496Z,2.40
2022-12-03T14:05:53.463Z,2.50
2022-12-03T14:08:23.662Z,2.50
2022-12-03T14:10:57.060Z,2.50
2022-12-03T14:13:29.297Z,2.50
2022-12-03T14:15:58.013Z,2.40
2022-12-03T14:18:27.222Z,2.50
2022-12-03T14:20:56.231Z,2.50
2022-12-03T14:23:41.640Z,2.60
2022-12-03T14:26:10.659Z,2.60
2022-12-03T14:28:39.347Z,2.60
2022-12-03T14:31:08.472Z,2.60
2022-12-03T14:33:37.338Z,2.60
2022-12-03T14:36:06.755Z,2.60
2022-12-03T14:38:35.504Z,2.70
2022-12-03T14:41:25.922Z,2.60
2022-12-03T14:43:54.681Z,2.60
2022-12-03T14:46:23.844Z,2.60
2022-12-03T14:48:52.626Z,2.50
2022-12-03T14:51:22.096Z,2.40
2022-12-03T14:53:50.877Z,2.50
2022-12-03T14:56:22.340Z,2.50
2022-12-03T14:58:51.160Z,2.60
2022-12-03T15:01:20.014Z,2.70
2022-12-03T15:03:48.768Z,2.70
2022-12-03T15:06:17.607Z,2.70
2022-12-03T15:08:46.453Z,2.60
2022-12-03T15:11:15.277Z,2.60
2022-12-03T15:13:45.423Z,2.70
2022-12-03T15:16:14.169Z,2.70
2022-12-03T15:18:42.995Z,2.70
2022-12-03T15:21:11.944Z,2.70
2022-12-03T15:23:40.836Z,2.70
2022-12-03T15:26:10.385Z,2.70
2022-12-03T15:28:40.577Z,2.70
2022-12-03T15:31:12.203Z,2.70
2022-12-03T15:33:41.277Z,2.70
2022-12-03T15:36:10.928Z,2.70
2022-12-03T15:38:39.729Z,2.70
2022-12-03T15:41:23.444Z,2.70
2022-12-03T15:43:53.670Z,2.70
2022-12-03T15:46:24.549Z,2.70
2022-12-03T15:48:53.722Z,2.70
2022-12-03T15:51:22.885Z,2.60
2022-12-03T15:53:51.924Z,2.60
2022-12-03T15:56:20.627Z,2.60
2022-12-03T15:58:49.353Z,2.70
2022-12-03T16:01:18.512Z,2.70
2022-12-03T16:03:48.780Z,2.70
2022-12-03T16:06:19.661Z,2.70
2022-12-03T16:08:48.458Z,2.60
2022-12-03T16:11:17.190Z,2.70
2022-12-03T16:13:45.903Z,2.70
2022-12-03T16:16:14.796Z,2.70
2022-12-03T16:18:44.625Z,2.70
2022-12-03T16:21:14.831Z,2.70
2022-12-03T16:23:43.589Z,2.70
2022-12-03T16:26:12.498Z,2.70
2022-12-03T16:28:41.324Z,2.70
2022-12-03T16:31:10.162Z,2.70
2022-12-03T16:33:40.431Z,2.80
2022-12-03T16:36:10.088Z,2.70
2022-12-03T16:38:40.193Z,2.80
2022-12-03T16:41:08.986Z,2.80
2022-12-03T16:43:38.827Z,2.70
2022-12-03T16:46:26.322Z,2.70
2022-12-03T16:48:57.982Z,2.70
2022-12-03T16:51:30.378Z,2.70
2022-12-03T16:54:00.623Z,2.70
2022-12-03T16:56:29.418Z,2.70
2022-12-03T16:58:58.760Z,2.70
2022-12-03T17:01:27.598Z,2.70
2022-12-03T17:03:56.322Z,2.70
2022-12-03T17:06:25.028Z,2.70
2022-12-03T17:08:53.775Z,2.70
2022-12-03T17:11:23.947Z,2.70
2022-12-03T17:13:52.711Z,2.70
2022-12-03T17:16:21.535Z,2.70
2022-12-03T17:18:50.271Z,2.70
2022-12-03T17:21:18.971Z,2.80
2022-12-03T17:23:48.978Z,2.80
2022-12-03T17:26:18.296Z,2.80
2022-12-03T17:28:48.819Z,2.70
2022-12-03T17:31:18.714Z,2.70
2022-12-03T17:33:50.571Z,2.80
2022-12-03T17:36:19.338Z,2.70
2022-12-03T17:38:48.062Z,2.70
2022-12-03T17:41:16.892Z,2.80
2022-12-03T17:43:45.646Z,2.80
2022-12-03T17:46:15.796Z,2.80
2022-12-03T17:48:44.736Z,2.80
2022-12-03T17:51:13.460Z,2.80
2022-12-03T17:53:42.153Z,2.70
2022-12-03T17:56:10.945Z,2.70
2022-12-03T17:58:39.659Z,2.80
2022-12-03T18:01:10.476Z,2.70
2022-12-03T18:03:40.661Z,2.80
2022-12-03T18:06:09.826Z,2.80
2022-12-03T18:08:38.641Z,2.80
2022-12-03T18:11:07.778Z,2.90
2022-12-03T18:13:36.993Z,2.80
2022-12-03T18:16:11.050Z,2.80
2022-12-03T18:18:46.652Z,2.80
2022-12-03T18:21:18.667Z,2.80
2022-12-03T18:23:48.220Z,2.80
2022-12-03T18:26:17.542Z,2.80
2022-12-03T18:28:47.334Z,2.80
2022-12-03T18:31:19.723Z,2.80
2022-12-03T18:33:51.256Z,2.80
2022-12-03T18:36:25.286Z,2.80
2022-12-03T18:38:56.401Z,2.80
2022-12-03T18:41:26.445Z,2.80
2022-12-03T18:43:55.613Z,2.80
2022-12-03T18:46:51.746Z,2.90
2022-12-03T18:49:14.709Z,2.80
2022-12-03T18:51:43.444Z,2.90
2022-12-03T18:54:14.469Z,2.80
2022-12-03T18:56:43.176Z,2.80
2022-12-03T18:59:12.370Z,2.80
2022-12-03T19:01:41.091Z,2.80
2022-12-03T19:04:11.798Z,2.80
2022-12-03T19:06:42.425Z,2.80
2022-12-03T19:09:12.718Z,2.80
2022-12-03T19:11:41.645Z,2.80
2022-12-03T19:14:11.856Z,2.90
2022-12-03T19:16:41.795Z,2.80
2022-12-03T19:19:11.941Z,2.90
2022-12-03T19:21:42.217Z,2.90
2022-12-03T19:24:26.281Z,2.80
2022-12-03T19:26:55.689Z,2.80
2022-12-03T19:29:25.075Z,2.80
2022-12-03T19:31:54.225Z,2.80
2022-12-03T19:34:23.011Z,2.80
2022-12-03T19:36:53.223Z,2.80
2022-12-03T19:39:21.963Z,2.70
2022-12-03T19:41:51.480Z,2.80
2022-12-03T19:44:21.710Z,2.80
2022-12-03T19:46:53.296Z,2.80
2022-12-03T19:49:22.420Z,2.80
2022-12-03T19:51:53.380Z,2.90
2022-12-03T19:54:22.155Z,2.90
2022-12-03T19:56:50.904Z,2.80
2022-12-03T19:59:19.631Z,2.90
2022-12-03T20:01:49.553Z,2.80
2022-12-03T20:04:18.954Z,2.90
2022-12-03T20:06:48.619Z,2.80
2022-12-03T20:09:20.701Z,2.90
2022-12-03T20:11:53.965Z,2.80
2022-12-03T20:14:23.173Z,2.80
2022-12-03T20:16:52.062Z,2.90
2022-12-03T20:19:21.030Z,2.90
2022-12-03T20:21:49.920Z,2.90
2022-12-03T20:24:20.855Z,2.90
2022-12-03T20:26:50.601Z,2.90
2022-12-03T20:29:20.752Z,2.90
2022-12-03T20:31:49.966Z,2.90
2022-12-03T20:34:22.031Z,2.90
2022-12-03T20:36:50.796Z,2.90
2022-12-03T20:39:21.133Z,2.90
2022-12-03T20:41:55.368Z,2.90
2022-12-03T20:44:24.203Z,2.80
2022-12-03T20:46:55.258Z,2.80
2022-12-03T20:49:24.095Z,2.80
2022-12-03T20:51:52.992Z,2.80
2022-12-03T20:54:23.762Z,2.80
2022-12-03T20:56:52.960Z,2.80
2022-12-03T20:59:23.698Z,2.80
2022-12-03T21:01:52.660Z,2.80
2022-12-03T21:04:21.435Z,2.80
2022-12-03T21:06:50.449Z,2.80
2022-12-03T21:09:19.228Z,2.90
2022-12-03T21:11:49.374Z,2.90
2022-12-03T21:14:18.170Z,2.80
2022-12-03T21:19:38.985Z,2.90
2022-12-03T21:22:08.365Z,2.90
2022-12-03T21:24:38.317Z,2.90
2022-12-03T21:27:08.581Z,2.90
2022-12-03T21:29:37.614Z,2.90
2022-12-03T21:32:06.520Z,2.90
2022-12-03T21:34:36.542Z,2.90
2022-12-03T21:37:05.817Z,2.90
2022-12-03T21:39:34.641Z,2.80
2022-12-03T21:42:25.932Z,2.90
2022-12-03T21:44:53.631Z,2.90
2022-12-03T21:47:22.384Z,3.00
2022-12-03T21:49:51.318Z,3.00
2022-12-03T21:52:20.104Z,3.00
2022-12-03T21:54:49.051Z,2.90
2022-12-03T21:57:17.820Z,3.00
2022-12-03T21:59:46.677Z,2.90
2022-12-03T22:02:16.872Z,3.00
2022-12-03T22:04:50.076Z,3.00
2022-12-03T22:07:18.995Z,3.00
2022-12-03T22:09:47.755Z,3.00
2022-12-03T22:12:16.439Z,3.00
2022-12-03T22:14:45.121Z,3.00
2022-12-03T22:17:15.261Z,3.00
2022-12-03T22:19:44.073Z,3.00
2022-12-03T22:22:12.732Z,2.90
2022-12-03T22:24:41.479Z,2.80
2022-12-03T22:27:10.161Z,2.80
2022-12-03T22:29:40.061Z,2.90
2022-12-03T22:32:08.837Z,2.90
2022-12-03T22:34:40.983Z,2.90
2022-12-03T22:37:10.280Z,2.90
2022-12-03T22:39:41.751Z,2.80
2022-12-03T22:42:10.546Z,2.90
2022-12-03T22:44:39.412Z,2.90
2022-12-03T22:47:08.522Z,2.90
2022-12-03T22:49:38.908Z,2.90
2022-12-03T22:52:07.622Z,3.00
2022-12-03T22:54:36.646Z,2.90
2022-12-03T22:57:05.518Z,3.00
2022-12-03T22:59:34.302Z,3.00
2022-12-03T23:02:05.561Z,2.80
2022-12-03T23:04:38.881Z,2.90
2022-12-03T23:07:08.459Z,2.90
2022-12-03T23:09:39.496Z,3.00
2022-12-03T23:12:08.577Z,2.90
2022-12-03T23:14:37.401Z,3.00
2022-12-03T23:17:06.139Z,3.00
2022-12-03T23:19:34.917Z,3.00
2022-12-03T23:22:05.444Z,3.00
2022-12-03T23:24:34.383Z,2.90
2022-12-03T23:27:03.194Z,3.00
2022-12-03T23:29:32.170Z,3.00
2022-12-03T23:32:00.875Z,3.00
2022-12-03T23:34:29.773Z,3.10
2022-12-03T23:36:58.629Z,3.10
2022-12-03T23:39:29.007Z,3.10
2022-12-03T23:41:57.882Z,3.10
2022-12-03T23:44:28.381Z,3.10
2022-12-03T23:46:57.198Z,3.10
2022-12-03T23:49:26.439Z,3.10
2022-12-03T23:51:55.569Z,3.10
2022-12-03T23:54:24.532Z,3.10
2022-12-03T23:56:54.698Z,3.10
2022-12-03T23:59:23.607Z,3.10
